Taintor, Iowa
Current Conditions -  °F | °C
As of 12:15 AM on Thursday 23 Oct 2014 (Local Time) from KPEA Reporting Station
Scattered Clouds Scattered Clouds  
Wind Chill: 53°   Ceiling: Unl
Heat Index: 53°   Visibility: 10mi
Dew Point: 42°   Wind: 10mph
Humidity: 67%   Direction: 150°SSE
Pressure: 30.12"   Gusts: NA
Location:  41.465°N, 92.7016°W
Report Text: KPEA 230515Z AUTO 15009KT 10SM SCT090 12/06 A3012 RMK AO2 T01160056
Loading
Personal Weather Stations






























Interactive Weather Map
Tropical Storm Tracking
New forecast layout! Learn more

10-Day Weather Forecast

Advertisements
Track Severe Weather on mobile